createdAt,value
2023-03-29T00:00:39.524Z,96.92
2023-03-29T00:03:24.839Z,95.64
2023-03-29T00:06:18.112Z,95.15
2023-03-29T00:08:58.856Z,94.72
2023-03-29T00:11:57.830Z,95.13
2023-03-29T00:14:43.273Z,94.81
2023-03-29T00:20:18.895Z,93.67
2023-03-29T00:22:50.424Z,93.88
2023-03-29T00:28:22.591Z,93.17
2023-03-29T00:31:05.181Z,93.45
2023-03-29T00:33:47.731Z,94.10
2023-03-29T00:37:10.376Z,94.24
2023-03-29T00:40:36.313Z,94.47
2023-03-29T00:43:18.082Z,93.95
2023-03-29T00:46:15.148Z,95.37
2023-03-29T00:48:54.072Z,95.75
2023-03-29T00:51:41.751Z,95.47
2023-03-29T00:54:48.713Z,95.13
2023-03-29T00:58:07.295Z,95.14
2023-03-29T01:05:44.436Z,94.45
2023-03-29T01:13:01.787Z,97.27
2023-03-29T01:15:45.708Z,98.18
2023-03-29T01:18:37.915Z,99.12
2023-03-29T01:21:45.377Z,100.00
2023-03-29T01:25:00.146Z,100.00
2023-03-29T01:28:12.792Z,100.00
2023-03-29T01:31:16.121Z,100.00
2023-03-29T01:34:35.657Z,100.00
2023-03-29T01:37:30.990Z,100.00
2023-03-29T01:40:37.266Z,100.00
2023-03-29T01:44:34.223Z,100.00
2023-03-29T01:51:01.789Z,100.00
2023-03-29T01:54:15.152Z,100.00
2023-03-29T01:57:19.092Z,100.00
2023-03-29T02:00:00.380Z,100.00
2023-03-29T02:03:09.052Z,100.00
2023-03-29T02:06:02.496Z,100.00
2023-03-29T02:12:20.147Z,100.00
2023-03-29T02:15:38.518Z,100.00
2023-03-29T02:33:28.094Z,100.00
2023-03-29T02:36:14.566Z,100.00
2023-03-29T02:38:49.172Z,100.00
2023-03-29T02:41:21.665Z,100.00
2023-03-29T02:58:29.721Z,100.00
2023-03-29T03:01:11.524Z,100.00
2023-03-29T03:04:28.238Z,100.00
2023-03-29T03:07:54.731Z,100.00
2023-03-29T03:14:06.191Z,100.00
2023-03-29T03:17:04.877Z,100.00
2023-03-29T03:34:20.142Z,100.00
2023-03-29T03:34:24.133Z,100.00
2023-03-29T03:37:15.110Z,100.00
2023-03-29T03:40:13.752Z,100.00
2023-03-29T03:43:04.049Z,100.00
2023-03-29T03:45:32.602Z,100.00
2023-03-29T03:48:03.975Z,100.00
2023-03-29T03:50:35.208Z,100.00
2023-03-29T03:53:15.808Z,100.00
2023-03-29T03:55:56.462Z,100.00
2023-03-29T03:59:00.886Z,100.00
2023-03-29T04:01:43.665Z,100.00
2023-03-29T04:04:16.695Z,100.00
2023-03-29T04:07:06.602Z,100.00
2023-03-29T04:09:45.433Z,100.00
2023-03-29T04:12:22.745Z,100.00
2023-03-29T04:15:52.429Z,100.00
2023-03-29T04:21:35.162Z,100.00
2023-03-29T04:24:23.398Z,100.00
2023-03-29T04:27:01.568Z,100.00
2023-03-29T04:30:31.214Z,100.00
2023-03-29T04:36:19.765Z,100.00
2023-03-29T04:39:06.364Z,100.00
2023-03-29T04:41:45.332Z,100.00
2023-03-29T04:47:49.767Z,100.00
2023-03-29T05:10:33.132Z,100.00
2023-03-29T05:13:38.133Z,100.00
2023-03-29T05:32:41.925Z,97.96
2023-03-29T05:35:31.420Z,97.63
2023-03-29T05:38:25.378Z,97.20
2023-03-29T05:41:06.477Z,96.62
2023-03-29T05:43:35.552Z,96.05
2023-03-29T05:46:07.645Z,95.71
2023-03-29T05:48:56.178Z,94.76
2023-03-29T05:51:28.262Z,93.26
2023-03-29T05:54:03.552Z,93.28
2023-03-29T05:56:56.391Z,93.23
2023-03-29T05:59:25.107Z,92.89
2023-03-29T06:02:02.700Z,92.27
2023-03-29T06:04:34.258Z,91.15
2023-03-29T06:07:23.672Z,90.45
2023-03-29T06:09:56.199Z,89.78
2023-03-29T06:12:25.166Z,88.80
2023-03-29T06:14:59.289Z,87.79
2023-03-29T06:20:12.125Z,85.68
2023-03-29T06:22:41.422Z,84.80
2023-03-29T06:25:19.955Z,82.47
2023-03-29T06:28:19.739Z,80.63
2023-03-29T06:30:48.425Z,78.56
2023-03-29T06:33:18.865Z,77.78
2023-03-29T06:39:07.104Z,73.93
2023-03-29T06:42:10.087Z,69.54
2023-03-29T06:44:51.873Z,69.16
2023-03-29T06:47:39.308Z,65.06
2023-03-29T06:51:21.906Z,62.12
2023-03-29T07:04:07.377Z,54.92
2023-03-29T07:09:43.591Z,51.11
2023-03-29T07:12:27.307Z,49.85
2023-03-29T07:18:56.968Z,47.01
2023-03-29T07:30:44.416Z,45.28
2023-03-29T07:33:41.303Z,43.78
2023-03-29T07:36:22.108Z,42.76
2023-03-29T07:39:04.877Z,41.86
2023-03-29T07:41:33.192Z,40.77
2023-03-29T07:44:09.339Z,40.01
2023-03-29T07:46:47.806Z,42.04
2023-03-29T07:49:18.426Z,42.27
2023-03-29T07:52:04.092Z,41.94
2023-03-29T07:54:38.266Z,41.58
2023-03-29T07:57:28.107Z,41.31
2023-03-29T07:59:59.695Z,38.72
2023-03-29T08:02:29.299Z,35.70
2023-03-29T08:04:59.790Z,34.32
2023-03-29T08:07:28.217Z,34.57
2023-03-29T08:10:06.070Z,34.42
2023-03-29T08:12:36.233Z,31.92
2023-03-29T08:15:05.755Z,33.84
2023-03-29T08:17:35.119Z,33.42
2023-03-29T08:20:06.060Z,33.35
2023-03-29T08:22:34.682Z,34.15
2023-03-29T08:25:09.092Z,34.40
2023-03-29T08:27:37.818Z,34.61
2023-03-29T08:30:08.330Z,33.85
2023-03-29T08:32:39.624Z,33.61
2023-03-29T08:35:18.635Z,33.97
2023-03-29T08:55:51.714Z,37.42
2023-03-29T09:01:47.392Z,36.35
2023-03-29T09:10:09.286Z,33.77
2023-03-29T09:17:51.964Z,34.89
2023-03-29T09:24:15.934Z,34.75
2023-03-29T09:27:28.972Z,36.39
2023-03-29T09:40:39.035Z,34.73
2023-03-29T09:50:23.016Z,35.00
2023-03-29T09:56:02.529Z,34.89
2023-03-29T09:58:39.323Z,34.61
2023-03-29T10:10:33.373Z,32.30
2023-03-29T10:13:43.108Z,33.32
2023-03-29T10:16:21.617Z,28.18
2023-03-29T10:18:56.936Z,28.54
2023-03-29T10:21:25.749Z,29.19
2023-03-29T10:24:00.147Z,28.14
2023-03-29T10:26:32.937Z,28.86
2023-03-29T10:29:05.059Z,29.95
2023-03-29T10:31:42.749Z,26.55
2023-03-29T10:34:16.657Z,25.64
2023-03-29T10:36:49.283Z,26.92
2023-03-29T10:39:17.656Z,27.86
2023-03-29T10:41:51.836Z,28.02
2023-03-29T10:44:33.231Z,29.55
2023-03-29T10:47:36.918Z,29.91
2023-03-29T10:51:06.523Z,29.70
2023-03-29T10:53:43.268Z,30.42
2023-03-29T10:57:07.066Z,29.94
2023-03-29T11:03:10.239Z,30.61
2023-03-29T11:06:21.282Z,31.38
2023-03-29T11:09:14.400Z,31.64
2023-03-29T11:12:37.461Z,30.92
2023-03-29T11:15:22.355Z,30.03
2023-03-29T11:18:01.856Z,27.60
2023-03-29T11:20:43.456Z,28.68
2023-03-29T11:24:00.860Z,27.27
2023-03-29T11:26:50.868Z,28.30
2023-03-29T11:29:25.654Z,28.51
2023-03-29T11:32:09.190Z,27.16
2023-03-29T11:35:21.453Z,26.64
2023-03-29T11:42:28.929Z,24.64
2023-03-29T11:44:59.901Z,25.29
2023-03-29T11:47:33.046Z,24.46
2023-03-29T11:50:14.884Z,24.60
2023-03-29T11:53:04.084Z,24.23
2023-03-29T11:55:37.302Z,23.96
2023-03-29T11:58:12.006Z,23.40
2023-03-29T12:00:45.555Z,22.58
2023-03-29T12:03:22.298Z,22.48
2023-03-29T12:06:15.847Z,23.15
2023-03-29T12:08:47.771Z,22.38
2023-03-29T12:11:21.619Z,22.63
2023-03-29T12:13:54.894Z,23.50
2023-03-29T12:16:29.045Z,23.72
2023-03-29T12:18:59.594Z,24.02
2023-03-29T12:21:31.680Z,23.67
2023-03-29T12:24:02.988Z,23.85
2023-03-29T12:26:46.964Z,23.22
2023-03-29T12:29:41.901Z,23.81
2023-03-29T12:32:42.632Z,23.64
2023-03-29T12:35:42.505Z,23.30
2023-03-29T12:38:24.127Z,23.94
2023-03-29T12:40:57.480Z,23.08
2023-03-29T12:43:29.695Z,22.97
2023-03-29T12:46:02.953Z,24.46
2023-03-29T12:48:37.530Z,23.77
2023-03-29T12:51:23.652Z,22.96
2023-03-29T12:54:04.181Z,23.85
2023-03-29T12:56:43.493Z,23.07
2023-03-29T12:59:49.298Z,23.02
2023-03-29T13:02:37.291Z,23.31
2023-03-29T13:05:43.913Z,20.64
2023-03-29T13:08:20.763Z,18.75
2023-03-29T13:10:55.699Z,17.61
2023-03-29T13:13:46.550Z,18.07
2023-03-29T13:16:31.898Z,16.77
2023-03-29T13:19:13.615Z,15.84
2023-03-29T13:22:01.741Z,13.38
2023-03-29T13:24:54.918Z,13.55
2023-03-29T13:27:38.416Z,14.60
2023-03-29T13:30:49.442Z,14.49
2023-03-29T13:33:49.708Z,13.97
2023-03-29T13:36:51.544Z,13.64
2023-03-29T13:39:36.838Z,13.63
2023-03-29T13:42:19.988Z,13.35
2023-03-29T13:44:50.504Z,12.80
2023-03-29T13:47:48.913Z,12.66
2023-03-29T13:50:41.434Z,12.62
2023-03-29T13:53:16.900Z,12.02
2023-03-29T13:55:51.126Z,11.43
2023-03-29T13:58:34.144Z,11.62
2023-03-29T14:01:13.214Z,12.10
2023-03-29T14:03:46.047Z,12.11
2023-03-29T14:06:23.134Z,11.78
2023-03-29T14:08:53.269Z,11.61
2023-03-29T14:11:32.507Z,11.67
2023-03-29T14:14:02.897Z,11.11
2023-03-29T14:16:34.483Z,11.38
2023-03-29T14:19:13.900Z,11.84
2023-03-29T14:21:46.099Z,11.76
2023-03-29T14:24:26.129Z,11.68
2023-03-29T14:26:55.252Z,11.62
2023-03-29T14:29:25.397Z,12.18
2023-03-29T14:32:01.239Z,11.63
2023-03-29T14:34:32.093Z,11.96
2023-03-29T14:40:31.801Z,11.75
2023-03-29T14:43:33.516Z,12.32
2023-03-29T14:46:20.002Z,12.41
2023-03-29T14:49:08.884Z,12.64
2023-03-29T14:51:46.599Z,13.06
2023-03-29T14:54:20.989Z,12.32
2023-03-29T14:56:50.481Z,11.87
2023-03-29T14:59:27.537Z,11.94
2023-03-29T15:01:56.821Z,12.34
2023-03-29T15:04:42.217Z,12.18
2023-03-29T15:07:10.420Z,12.78
2023-03-29T15:09:40.227Z,13.77
2023-03-29T15:12:32.409Z,13.98
2023-03-29T15:15:02.634Z,14.69
2023-03-29T15:17:51.135Z,14.81
2023-03-29T15:20:26.045Z,15.00
2023-03-29T15:23:02.840Z,14.86
2023-03-29T15:26:24.523Z,15.75
2023-03-29T15:29:11.784Z,15.61
2023-03-29T15:31:42.690Z,16.07
2023-03-29T15:34:13.588Z,16.50
2023-03-29T15:36:46.531Z,16.68
2023-03-29T15:42:23.062Z,16.50
2023-03-29T15:44:55.013Z,16.43
2023-03-29T15:47:30.986Z,16.49
2023-03-29T15:50:12.604Z,16.57
2023-03-29T15:52:49.927Z,16.43
2023-03-29T15:55:23.914Z,16.83
2023-03-29T15:57:59.341Z,17.05
2023-03-29T16:00:27.909Z,16.84
2023-03-29T16:02:56.159Z,16.88
2023-03-29T16:05:24.262Z,17.14
2023-03-29T16:07:54.233Z,17.32
2023-03-29T16:10:22.453Z,17.24
2023-03-29T16:12:50.575Z,17.88
2023-03-29T16:15:21.743Z,18.06
2023-03-29T16:17:50.082Z,18.08
2023-03-29T16:20:20.271Z,18.62
2023-03-29T16:22:49.019Z,19.48
2023-03-29T16:25:22.863Z,20.40
2023-03-29T16:27:52.620Z,21.50
2023-03-29T16:30:21.143Z,22.37
2023-03-29T16:32:49.285Z,23.59
2023-03-29T16:35:23.102Z,24.95
2023-03-29T16:37:51.640Z,25.73
2023-03-29T16:40:25.205Z,26.90
2023-03-29T16:42:53.835Z,27.39
2023-03-29T16:45:22.122Z,28.03
2023-03-29T16:47:50.365Z,28.99
2023-03-29T16:50:21.917Z,29.97
2023-03-29T16:52:53.651Z,29.82
2023-03-29T16:55:23.446Z,30.45
2023-03-29T16:57:54.424Z,30.31
2023-03-29T17:00:23.631Z,31.00
2023-03-29T17:02:51.834Z,31.44
2023-03-29T17:05:20.600Z,31.65
2023-03-29T17:07:49.095Z,32.25
2023-03-29T17:10:17.319Z,32.88
2023-03-29T17:12:46.932Z,32.80
2023-03-29T17:15:17.358Z,33.04
2023-03-29T17:17:45.689Z,33.41
2023-03-29T17:20:16.552Z,33.44
2023-03-29T17:22:44.956Z,33.68
2023-03-29T17:25:13.285Z,33.84
2023-03-29T17:27:46.153Z,34.40
2023-03-29T17:30:26.210Z,34.74
2023-03-29T17:33:30.945Z,35.58
2023-03-29T17:37:08.232Z,35.59
2023-03-29T17:39:42.652Z,35.31
2023-03-29T17:42:29.012Z,37.29
2023-03-29T17:45:30.644Z,36.75
2023-03-29T17:48:20.963Z,38.15
2023-03-29T17:57:59.410Z,37.27
2023-03-29T18:01:06.721Z,36.91
2023-03-29T18:04:05.267Z,36.82
2023-03-29T18:06:58.462Z,36.98
2023-03-29T18:10:11.055Z,37.75
2023-03-29T18:17:36.767Z,36.75
2023-03-29T18:20:12.713Z,36.88
2023-03-29T18:22:45.466Z,37.20
2023-03-29T18:25:19.055Z,36.77
2023-03-29T18:27:49.794Z,36.73
2023-03-29T18:33:11.576Z,35.69
2023-03-29T18:35:41.275Z,36.12
2023-03-29T18:38:09.539Z,36.57
2023-03-29T18:40:39.554Z,36.46
2023-03-29T18:43:07.716Z,36.68
2023-03-29T18:45:36.107Z,37.16
2023-03-29T18:48:08.196Z,36.93
2023-03-29T18:50:38.959Z,37.64
2023-03-29T18:53:11.408Z,38.54
2023-03-29T18:55:39.613Z,39.09
2023-03-29T18:58:08.344Z,39.22
2023-03-29T19:00:36.706Z,39.16
2023-03-29T19:03:05.592Z,39.64
2023-03-29T19:05:34.026Z,39.62
2023-03-29T19:08:12.136Z,39.73
2023-03-29T19:10:52.838Z,39.37
2023-03-29T19:13:24.297Z,39.53
2023-03-29T19:15:53.368Z,39.37
2023-03-29T19:18:22.229Z,39.29
2023-03-29T19:20:58.590Z,39.80
2023-03-29T19:23:45.623Z,39.16
2023-03-29T19:26:16.586Z,39.43
2023-03-29T19:28:49.456Z,39.13
2023-03-29T19:31:33.838Z,40.01
2023-03-29T19:34:11.509Z,39.98
2023-03-29T19:36:40.238Z,39.62
2023-03-29T19:39:21.791Z,39.47
2023-03-29T19:42:17.060Z,39.23
2023-03-29T19:44:46.813Z,39.69
2023-03-29T19:47:15.636Z,40.29
2023-03-29T19:49:46.263Z,40.25
2023-03-29T19:52:14.902Z,40.77
2023-03-29T19:54:47.103Z,41.26
2023-03-29T19:57:17.170Z,42.22
2023-03-29T19:59:45.562Z,41.73
2023-03-29T20:02:14.101Z,42.46
2023-03-29T20:04:42.463Z,42.94
2023-03-29T20:07:10.738Z,43.17
2023-03-29T20:09:39.372Z,43.22
2023-03-29T20:12:10.498Z,43.43
2023-03-29T20:14:40.473Z,44.04
2023-03-29T20:17:08.866Z,43.86
2023-03-29T20:19:38.076Z,44.26
2023-03-29T20:22:39.005Z,44.75
2023-03-29T20:25:09.613Z,45.55
2023-03-29T20:27:41.052Z,45.53
2023-03-29T20:30:12.820Z,45.66
2023-03-29T20:32:41.967Z,45.58
2023-03-29T20:35:11.218Z,45.70
2023-03-29T20:37:40.046Z,46.69
2023-03-29T20:40:11.361Z,46.65
2023-03-29T20:42:39.851Z,46.94
2023-03-29T20:45:18.808Z,47.35
2023-03-29T20:47:56.392Z,47.23
2023-03-29T20:50:28.523Z,47.95
2023-03-29T20:53:03.920Z,48.24
2023-03-29T20:55:33.595Z,48.01
2023-03-29T20:58:08.229Z,48.13
2023-03-29T21:00:59.826Z,47.70
2023-03-29T21:04:05.364Z,47.81
2023-03-29T21:06:45.274Z,47.64
2023-03-29T21:10:01.060Z,48.05
2023-03-29T21:13:17.140Z,48.41
2023-03-29T21:16:39.925Z,47.49
2023-03-29T21:19:13.193Z,47.20
2023-03-29T21:22:15.943Z,48.04
2023-03-29T21:24:44.244Z,47.86
2023-03-29T21:27:15.058Z,48.09
2023-03-29T21:29:43.492Z,48.52
2023-03-29T21:32:13.507Z,48.56
2023-03-29T21:34:42.069Z,48.98
2023-03-29T21:37:11.762Z,49.11
2023-03-29T21:39:41.101Z,49.33
2023-03-29T21:42:09.526Z,49.25
2023-03-29T21:44:43.711Z,49.37
2023-03-29T21:47:13.919Z,49.48
2023-03-29T21:49:42.690Z,49.68
2023-03-29T21:52:20.408Z,49.65
2023-03-29T21:54:53.328Z,49.90
2023-03-29T21:57:32.124Z,50.14
2023-03-29T22:00:19.928Z,50.29
2023-03-29T22:06:47.685Z,50.44
2023-03-29T22:09:20.326Z,50.35
2023-03-29T22:12:10.628Z,50.83
2023-03-29T22:14:44.380Z,50.65
2023-03-29T22:17:39.382Z,51.45
2023-03-29T22:20:14.138Z,51.16
2023-03-29T22:22:56.395Z,51.77
2023-03-29T22:25:28.342Z,51.69
2023-03-29T22:27:59.278Z,52.20
2023-03-29T22:30:41.508Z,52.56
2023-03-29T22:33:10.517Z,52.49
2023-03-29T22:35:41.795Z,53.13
2023-03-29T22:38:24.664Z,53.52
2023-03-29T22:41:01.448Z,52.91
2023-03-29T22:46:45.202Z,53.07
2023-03-29T22:50:33.510Z,53.65
2023-03-29T22:53:09.333Z,53.95
2023-03-29T22:59:05.579Z,54.10
2023-03-29T23:03:18.327Z,54.90
2023-03-29T23:06:09.363Z,54.39
2023-03-29T23:08:49.764Z,54.72
2023-03-29T23:12:06.268Z,55.28
2023-03-29T23:14:58.874Z,55.50
2023-03-29T23:17:40.041Z,54.85
2023-03-29T23:20:24.398Z,55.73
2023-03-29T23:23:12.238Z,56.59
2023-03-29T23:33:01.672Z,56.96
2023-03-29T23:45:31.018Z,57.36
2023-03-29T23:48:26.628Z,57.76
2023-03-29T23:51:30.290Z,57.71
2023-03-29T23:58:47.378Z,57.91
